BDP weather

Bhadrapur Airport
Bhadrapur, Mechi, Nepal

Public forecast

Using degrees Celsius for public forecast. Weather courtesy of forecast.io.

METAR (pilot weather report)

Report is more than 2 hours old.

Closest report is Bagdogra Airport, 14.9 nm (27.6 km) ENE. Retrieved 2019/07/17 17:30 UTC (3 hours ago):

VEBD 171730Z 33004KT 6000 LT SCT030 FEW030CB BKN090 27/24 Q1004 NOSIG

TAF (pilot weather forecast)

Forecast is more than 6 hours old.

Closest forecast is Bagdogra Airport, 14.9 nm (27.6 km) ENE. Retrieved 2019/07/17 12:30 UTC (8 hours ago):

TAF VEBD 170930Z 1712/1724 05010KT 6000 SCT015 SCT025 SCT090 TEMPO 1718/1724 3000 TSRA SCT010 SCT020 FEW030CB BKN080